Time;durP1;ratioP1;P1;durP2;ratioP2;P2;SDS_P1;SDS_P2;PMS_P1;PMS_P2;Temp;Humidity;BMP_temperature;BMP_pressure;BME280_temperature;BME280_humidity;BME280_pressure;Samples;Min_cycle;Max_cycle;Signal;HPM_P1;HPM_P2
2020/12/30 00:02:10;;;;;;;8.15;4.90;;;;;;;;;;4994416;28;20049;-60
2020/12/30 00:04:36;;;;;;;14.30;9.73;;;;;;;;;;4999777;28;20034;-61
2020/12/30 00:07:01;;;;;;;13.23;9.82;;;;;;;;;;4999466;28;20377;-60
2020/12/30 00:09:26;;;;;;;14.32;9.95;;;;;;;;;;4999088;28;20037;-60
2020/12/30 00:11:52;;;;;;;13.82;9.80;;;;;;;;;;5000337;28;20029;-61
2020/12/30 00:14:17;;;;;;;14.93;9.77;;;;;;;;;;4998915;28;20351;-61
2020/12/30 00:16:43;;;;;;;16.05;9.57;;;;;;;;;;4998541;28;20133;-61
2020/12/30 00:19:08;;;;;;;13.45;9.45;;;;;;;;;;4998612;28;20425;-61
2020/12/30 00:21:33;;;;;;;15.43;10.32;;;;;;;;;;4999113;28;20110;-60
2020/12/30 00:23:58;;;;;;;14.50;9.95;;;;;;;;;;4999777;28;20049;-61
2020/12/30 00:26:24;;;;;;;14.35;8.75;;;;;;;;;;4998196;28;20038;-61
2020/12/30 00:28:49;;;;;;;15.77;8.68;;;;;;;;;;5000821;28;20369;-61
2020/12/30 00:31:15;;;;;;;13.70;6.82;;;;;;;;;;4998362;28;20026;-61
2020/12/30 00:33:40;;;;;;;8.65;6.10;;;;;;;;;;4998852;28;20049;-61
2020/12/30 00:36:07;;;;;;;9.73;6.15;;;;;;;;;;4998792;28;20034;-61
2020/12/30 00:38:33;;;;;;;7.53;5.20;;;;;;;;;;4998651;28;20026;-61
2020/12/30 00:40:58;;;;;;;9.77;5.57;;;;;;;;;;4999078;28;20030;-60
2020/12/30 00:43:23;;;;;;;11.85;5.75;;;;;;;;;;4997098;28;20509;-61
2020/12/30 00:45:49;;;;;;;10.25;5.68;;;;;;;;;;5000187;28;20108;-61
2020/12/30 00:48:14;;;;;;;7.68;5.20;;;;;;;;;;4997285;28;20034;-61
2020/12/30 00:50:39;;;;;;;7.97;5.82;;;;;;;;;;4998910;28;20026;-61
2020/12/30 00:53:04;;;;;;;8.18;6.28;;;;;;;;;;4994809;28;20042;-61
2020/12/30 00:55:30;;;;;;;8.55;6.32;;;;;;;;;;4998586;28;20057;-61
2020/12/30 00:57:55;;;;;;;9.40;6.22;;;;;;;;;;4999365;28;20029;-59
2020/12/30 01:00:20;;;;;;;9.00;6.15;;;;;;;;;;4996032;28;20039;-61
2020/12/30 01:02:46;;;;;;;10.65;6.68;;;;;;;;;;4999628;28;20026;-60
2020/12/30 01:05:11;;;;;;;7.82;6.20;;;;;;;;;;4997651;28;20373;-60
2020/12/30 01:07:36;;;;;;;9.68;6.40;;;;;;;;;;4998250;28;20092;-60
2020/12/30 01:10:04;;;;;;;11.55;6.82;;;;;;;;;;4997497;28;20365;-60
2020/12/30 01:12:29;;;;;;;9.55;6.10;;;;;;;;;;4997859;28;20038;-60
2020/12/30 01:14:55;;;;;;;11.18;7.15;;;;;;;;;;4999120;28;20026;-60
2020/12/30 01:17:20;;;;;;;11.15;6.88;;;;;;;;;;4996502;28;20038;-60
2020/12/30 01:19:45;;;;;;;9.77;6.72;;;;;;;;;;4998961;28;20131;-60
2020/12/30 01:22:12;;;;;;;9.40;7.25;;;;;;;;;;4993175;28;20061;-60
2020/12/30 01:24:38;;;;;;;12.38;7.10;;;;;;;;;;4998933;28;20499;-61
2020/12/30 01:27:03;;;;;;;9.85;6.93;;;;;;;;;;4995889;28;20121;-61
2020/12/30 01:29:28;;;;;;;9.25;6.47;;;;;;;;;;4997840;28;20627;-62
2020/12/30 01:31:54;;;;;;;14.57;6.90;;;;;;;;;;4998589;28;20112;-62
2020/12/30 01:34:19;;;;;;;13.05;7.75;;;;;;;;;;4996833;28;20026;-62
2020/12/30 01:36:44;;;;;;;11.35;7.47;;;;;;;;;;4999219;28;20372;-61
2020/12/30 01:39:10;;;;;;;11.13;7.22;;;;;;;;;;4997122;28;20394;-61
2020/12/30 01:41:35;;;;;;;8.55;6.93;;;;;;;;;;4999337;28;20384;-61
2020/12/30 01:44:05;;;;;;;9.95;6.90;;;;;;;;;;4997335;28;20037;-61
2020/12/30 01:46:44;;;;;;;9.38;6.97;;;;;;;;;;4998274;28;20555;-61
2020/12/30 01:49:13;;;;;;;10.93;6.75;;;;;;;;;;4996470;28;20457;-61
2020/12/30 01:51:40;;;;;;;10.43;6.95;;;;;;;;;;4998497;28;20630;-61
2020/12/30 01:54:07;;;;;;;10.38;6.90;;;;;;;;;;4995058;28;20069;-62
2020/12/30 01:56:34;;;;;;;10.98;6.97;;;;;;;;;;4998557;28;20049;-61
2020/12/30 01:59:17;;;;;;;16.30;6.72;;;;;;;;;;4995136;28;20052;-61
2020/12/30 02:01:43;;;;;;;10.35;7.20;;;;;;;;;;4994266;28;20041;-61
2020/12/30 02:04:11;;;;;;;10.32;6.72;;;;;;;;;;4996768;28;20031;-61
2020/12/30 02:06:38;;;;;;;10.60;7.28;;;;;;;;;;4997290;28;20049;-61
2020/12/30 02:09:05;;;;;;;10.43;7.13;;;;;;;;;;4996319;28;20034;-61
2020/12/30 02:11:32;;;;;;;10.20;7.00;;;;;;;;;;4995389;28;20097;-61
2020/12/30 02:14:11;;;;;;;8.82;6.88;;;;;;;;;;4997893;28;20104;-61
2020/12/30 02:16:50;;;;;;;10.40;7.82;;;;;;;;;;4996754;28;20034;-61
2020/12/30 02:19:17;;;;;;;13.13;8.00;;;;;;;;;;4993121;28;20033;-61
2020/12/30 02:21:42;;;;;;;11.30;8.40;;;;;;;;;;4995797;28;20437;-61
2020/12/30 02:24:11;;;;;;;12.82;8.30;;;;;;;;;;4996675;28;20038;-60
2020/12/30 02:26:37;;;;;;;11.95;7.97;;;;;;;;;;4997443;28;20049;-61
2020/12/30 02:29:02;;;;;;;10.20;6.85;;;;;;;;;;4992891;28;20097;-61
2020/12/30 02:31:28;;;;;;;9.90;6.97;;;;;;;;;;4995577;28;20042;-61
2020/12/30 02:33:53;;;;;;;12.07;8.00;;;;;;;;;;4997909;28;20127;-61
2020/12/30 02:36:19;;;;;;;9.95;6.97;;;;;;;;;;4995337;28;20050;-60
2020/12/30 02:38:44;;;;;;;9.25;6.55;;;;;;;;;;4997916;28;20974;-60
2020/12/30 02:41:09;;;;;;;11.32;7.78;;;;;;;;;;4996118;28;20109;-60
2020/12/30 02:43:35;;;;;;;13.73;8.13;;;;;;;;;;4997050;28;20033;-60
2020/12/30 02:46:01;;;;;;;10.50;7.45;;;;;;;;;;4994452;28;20081;-60
2020/12/30 02:48:26;;;;;;;10.90;8.23;;;;;;;;;;4995861;28;20038;-60
2020/12/30 02:50:53;;;;;;;12.00;8.10;;;;;;;;;;4997858;28;20886;-60
2020/12/30 02:53:19;;;;;;;10.30;7.38;;;;;;;;;;4995892;28;20042;-60
2020/12/30 02:55:44;;;;;;;9.15;8.02;;;;;;;;;;4996219;28;20069;-60
2020/12/30 02:58:09;;;;;;;11.15;8.32;;;;;;;;;;4994426;28;20112;-60
2020/12/30 03:00:35;;;;;;;13.70;7.85;;;;;;;;;;4999928;28;20453;-60
2020/12/30 03:03:00;;;;;;;13.80;8.30;;;;;;;;;;5001802;28;20046;-60
2020/12/30 03:05:25;;;;;;;10.05;7.30;;;;;;;;;;4995166;28;20058;-60
2020/12/30 03:07:51;;;;;;;13.07;8.20;;;;;;;;;;5003947;28;20033;-59
2020/12/30 03:10:16;;;;;;;13.88;7.97;;;;;;;;;;5000699;28;20046;-60
2020/12/30 03:12:42;;;;;;;16.23;9.13;;;;;;;;;;5001413;28;20046;-60
2020/12/30 03:15:07;;;;;;;9.82;7.90;;;;;;;;;;5002235;28;20081;-60
2020/12/30 03:17:33;;;;;;;14.27;8.68;;;;;;;;;;5001772;28;20066;-60
2020/12/30 03:19:58;;;;;;;12.63;7.60;;;;;;;;;;5001499;28;20048;-60
2020/12/30 03:22:24;;;;;;;10.48;7.90;;;;;;;;;;4998577;28;20038;-60
2020/12/30 03:24:49;;;;;;;10.60;8.32;;;;;;;;;;5002963;28;20030;-61
2020/12/30 03:27:14;;;;;;;10.52;7.10;;;;;;;;;;5002013;28;20026;-60
2020/12/30 03:29:40;;;;;;;9.68;7.57;;;;;;;;;;5003023;28;20037;-60
2020/12/30 03:32:05;;;;;;;14.02;8.45;;;;;;;;;;5000715;28;20480;-60
2020/12/30 03:34:30;;;;;;;11.57;8.13;;;;;;;;;;5003107;28;20044;-59
2020/12/30 03:36:56;;;;;;;12.48;8.00;;;;;;;;;;5003591;28;20052;-59
2020/12/30 03:39:21;;;;;;;10.75;7.50;;;;;;;;;;5001251;28;20125;-60
2020/12/30 03:41:47;;;;;;;10.30;7.35;;;;;;;;;;5002152;28;20176;-60
2020/12/30 03:44:12;;;;;;;10.43;7.47;;;;;;;;;;5003364;28;20069;-60
2020/12/30 03:46:37;;;;;;;11.70;7.95;;;;;;;;;;5003182;28;20040;-61
2020/12/30 03:49:03;;;;;;;11.00;7.82;;;;;;;;;;5002646;28;20033;-61
2020/12/30 03:51:28;;;;;;;10.43;7.72;;;;;;;;;;5001091;28;20025;-60
2020/12/30 03:53:53;;;;;;;10.05;7.35;;;;;;;;;;5002647;28;20105;-61
2020/12/30 03:56:19;;;;;;;10.75;7.20;;;;;;;;;;5001624;28;20421;-60
2020/12/30 03:58:44;;;;;;;12.27;7.93;;;;;;;;;;5001437;28;20037;-60
2020/12/30 04:01:09;;;;;;;11.30;7.97;;;;;;;;;;5000983;28;20381;-60
2020/12/30 04:03:35;;;;;;;8.18;6.93;;;;;;;;;;5001883;28;20033;-61
2020/12/30 04:06:00;;;;;;;8.70;7.10;;;;;;;;;;5003170;28;20061;-60
2020/12/30 04:08:25;;;;;;;8.60;6.88;;;;;;;;;;5001265;28;20140;-60
2020/12/30 04:10:51;;;;;;;10.15;7.40;;;;;;;;;;5003228;28;20547;-61
2020/12/30 04:13:16;;;;;;;11.07;7.63;;;;;;;;;;4997367;28;20140;-61
2020/12/30 04:15:44;;;;;;;11.68;8.13;;;;;;;;;;4998083;28;20042;-61
2020/12/30 04:18:10;;;;;;;11.45;7.93;;;;;;;;;;4998208;28;20497;-61
2020/12/30 04:20:35;;;;;;;12.35;7.22;;;;;;;;;;4999737;28;20037;-61
2020/12/30 04:23:01;;;;;;;15.18;8.63;;;;;;;;;;4999551;28;20060;-60
2020/12/30 04:25:26;;;;;;;10.38;7.70;;;;;;;;;;4996640;28;20046;-61
2020/12/30 04:27:51;;;;;;;13.20;7.53;;;;;;;;;;5000281;28;20103;-61
2020/12/30 04:30:17;;;;;;;12.45;8.00;;;;;;;;;;4996670;28;20036;-61
2020/12/30 04:32:42;;;;;;;12.18;8.07;;;;;;;;;;5000069;28;20528;-60
2020/12/30 04:35:07;;;;;;;10.20;8.00;;;;;;;;;;4996963;28;20049;-61
2020/12/30 04:37:33;;;;;;;8.57;7.28;;;;;;;;;;4998906;28;20461;-61
2020/12/30 04:39:58;;;;;;;10.55;7.68;;;;;;;;;;4999628;28;20029;-61
2020/12/30 04:42:35;;;;;;;11.40;7.50;;;;;;;;;;4998057;28;20152;-61
2020/12/30 04:45:10;;;;;;;13.50;7.50;;;;;;;;;;4998380;28;20046;-61
2020/12/30 04:47:36;;;;;;;10.57;7.20;;;;;;;;;;4999253;28;20084;-61
2020/12/30 04:50:05;;;;;;;10.10;7.18;;;;;;;;;;4999242;28;20041;-61
2020/12/30 04:52:31;;;;;;;9.30;7.03;;;;;;;;;;4997672;28;20049;-61
2020/12/30 04:54:58;;;;;;;12.32;7.55;;;;;;;;;;4999336;28;20107;-61
2020/12/30 04:57:57;;;;;;;10.18;7.55;;;;;;;;;;4997243;28;20358;-61
2020/12/30 05:00:24;;;;;;;12.68;7.95;;;;;;;;;;4995062;28;20529;-61
2020/12/30 05:02:52;;;;;;;10.27;7.28;;;;;;;;;;4996130;28;20125;-61
2020/12/30 05:05:18;;;;;;;14.82;8.38;;;;;;;;;;4996643;28;20049;-60
2020/12/30 05:07:47;;;;;;;10.95;7.75;;;;;;;;;;4997459;28;20025;-60
2020/12/30 05:10:15;;;;;;;11.00;8.38;;;;;;;;;;4994173;28;20053;-60
2020/12/30 05:12:40;;;;;;;9.57;7.03;;;;;;;;;;4996000;28;20042;-61
2020/12/30 05:15:06;;;;;;;14.93;7.72;;;;;;;;;;4999200;28;20025;-60
2020/12/30 05:17:33;;;;;;;11.50;7.38;;;;;;;;;;4999126;28;20050;-60
2020/12/30 05:19:59;;;;;;;10.90;7.55;;;;;;;;;;4997225;28;20116;-61
2020/12/30 05:22:24;;;;;;;9.10;7.40;;;;;;;;;;4997364;28;20062;-61
2020/12/30 05:24:49;;;;;;;12.60;7.88;;;;;;;;;;4999830;28;20108;-61
2020/12/30 05:27:16;;;;;;;21.33;8.48;;;;;;;;;;4997284;28;20022;-61
2020/12/30 05:29:50;;;;;;;9.23;6.88;;;;;;;;;;4998170;28;20048;-60
2020/12/30 05:32:19;;;;;;;10.77;7.50;;;;;;;;;;4994156;28;20034;-60
2020/12/30 05:34:45;;;;;;;9.52;7.57;;;;;;;;;;4998675;28;20052;-60
2020/12/30 05:37:12;;;;;;;14.13;8.32;;;;;;;;;;4997025;28;20514;-61
2020/12/30 05:39:38;;;;;;;11.70;7.55;;;;;;;;;;4995907;28;20029;-60
2020/12/30 05:42:14;;;;;;;9.93;7.00;;;;;;;;;;4997125;28;20034;-60
2020/12/30 05:44:44;;;;;;;11.18;7.63;;;;;;;;;;5005316;28;20056;-60
2020/12/30 05:47:12;;;;;;;13.57;6.63;;;;;;;;;;4996208;28;20106;-60
2020/12/30 05:49:38;;;;;;;10.60;7.40;;;;;;;;;;4997263;28;20061;-60
2020/12/30 05:52:11;;;;;;;10.02;6.70;;;;;;;;;;4997498;28;20038;-61
2020/12/30 05:54:36;;;;;;;11.55;7.53;;;;;;;;;;4997666;28;20044;-60
2020/12/30 05:57:18;;;;;;;9.80;7.28;;;;;;;;;;4996528;28;20050;-61
2020/12/30 05:59:44;;;;;;;9.63;6.85;;;;;;;;;;4997964;28;20037;-60
2020/12/30 06:02:11;;;;;;;9.68;7.03;;;;;;;;;;4996706;28;20034;-60
2020/12/30 06:04:37;;;;;;;15.25;7.40;;;;;;;;;;4997551;28;20065;-60
2020/12/30 06:07:03;;;;;;;9.80;6.43;;;;;;;;;;4997265;28;20461;-60
2020/12/30 06:09:40;;;;;;;11.40;7.25;;;;;;;;;;4996681;28;20034;-60
2020/12/30 06:12:06;;;;;;;10.40;7.45;;;;;;;;;;4996813;28;20061;-61
2020/12/30 06:14:33;;;;;;;13.15;6.90;;;;;;;;;;4995737;28;20074;-60
2020/12/30 06:17:02;;;;;;;9.38;6.68;;;;;;;;;;4997684;28;20357;-60
2020/12/30 06:19:28;;;;;;;10.45;5.57;;;;;;;;;;4996413;28;20026;-60
2020/12/30 06:21:54;;;;;;;8.52;5.80;;;;;;;;;;4995348;28;20040;-60
2020/12/30 06:24:19;;;;;;;8.63;5.88;;;;;;;;;;4996219;28;20471;-61
2020/12/30 06:26:45;;;;;;;11.43;5.70;;;;;;;;;;4998186;28;20022;-60
2020/12/30 06:29:12;;;;;;;8.18;5.97;;;;;;;;;;4996095;28;20030;-60
2020/12/30 06:31:46;;;;;;;7.72;5.22;;;;;;;;;;4997086;28;20046;-60
2020/12/30 06:34:13;;;;;;;8.20;5.68;;;;;;;;;;4992317;28;20106;-60
2020/12/30 06:36:40;;;;;;;10.07;5.07;;;;;;;;;;4997285;28;20038;-61
2020/12/30 06:39:22;;;;;;;10.20;5.47;;;;;;;;;;4996637;28;20033;-61
2020/12/30 06:42:01;;;;;;;7.53;4.97;;;;;;;;;;4995730;28;20041;-60
2020/12/30 06:44:45;;;;;;;7.60;5.07;;;;;;;;;;4996048;28;20166;-60
2020/12/30 06:47:13;;;;;;;9.13;5.80;;;;;;;;;;4995749;28;20026;-60
2020/12/30 06:49:39;;;;;;;7.47;5.43;;;;;;;;;;4996801;28;20041;-60
2020/12/30 06:52:27;;;;;;;12.70;6.22;;;;;;;;;;4996261;28;20040;-60
2020/12/30 06:54:52;;;;;;;7.93;5.43;;;;;;;;;;4996863;28;20038;-60
2020/12/30 06:57:37;;;;;;;11.80;5.80;;;;;;;;;;4993655;28;20065;-61
2020/12/30 07:00:37;;;;;;;9.63;5.63;;;;;;;;;;4995902;28;20041;-61
2020/12/30 07:03:19;;;;;;;10.25;5.82;;;;;;;;;;4963634;28;20440;-61
2020/12/30 07:05:45;;;;;;;6.80;4.50;;;;;;;;;;4995951;28;20033;-60
2020/12/30 07:08:31;;;;;;;10.77;5.57;;;;;;;;;;4995727;28;20129;-60
2020/12/30 07:10:57;;;;;;;6.95;4.78;;;;;;;;;;4996962;28;20084;-60
2020/12/30 07:13:27;;;;;;;9.15;5.00;;;;;;;;;;5000052;28;20062;-61
2020/12/30 07:16:18;;;;;;;7.72;4.85;;;;;;;;;;4995113;28;20035;-60
2020/12/30 07:18:47;;;;;;;6.95;3.88;;;;;;;;;;4996654;28;20118;-61
2020/12/30 07:21:13;;;;;;;7.63;4.30;;;;;;;;;;4991477;28;20034;-60
2020/12/30 07:23:40;;;;;;;7.85;4.05;;;;;;;;;;4997106;28;20042;-59
2020/12/30 07:26:13;;;;;;;7.10;4.10;;;;;;;;;;4994549;28;20050;-60
2020/12/30 07:28:41;;;;;;;7.10;4.43;;;;;;;;;;4996495;28;20030;-61
2020/12/30 07:31:08;;;;;;;6.30;4.07;;;;;;;;;;4994670;28;20124;-60
2020/12/30 07:33:36;;;;;;;13.93;9.10;;;;;;;;;;4995911;28;20641;-60
2020/12/30 07:36:03;;;;;;;10.73;4.82;;;;;;;;;;4994032;28;20030;-61
2020/12/30 07:38:29;;;;;;;6.65;5.13;;;;;;;;;;4995930;28;20037;-61
2020/12/30 07:41:08;;;;;;;11.10;4.68;;;;;;;;;;4997253;28;20033;-62
2020/12/30 07:43:53;;;;;;;9.57;4.30;;;;;;;;;;4996243;28;20528;-61
2020/12/30 07:46:21;;;;;;;6.35;4.10;;;;;;;;;;4985360;28;20030;-61
2020/12/30 07:48:46;;;;;;;8.15;4.45;;;;;;;;;;4997313;28;20034;-61
2020/12/30 07:51:13;;;;;;;7.22;4.43;;;;;;;;;;4995284;28;20104;-61
2020/12/30 07:53:39;;;;;;;7.80;4.85;;;;;;;;;;4998298;28;20069;-61
2020/12/30 07:56:04;;;;;;;8.02;5.03;;;;;;;;;;4997914;28;20045;-62
2020/12/30 07:58:30;;;;;;;8.13;5.82;;;;;;;;;;4998453;28;20045;-62
2020/12/30 08:00:55;;;;;;;11.52;5.40;;;;;;;;;;4996985;28;20073;-60
2020/12/30 08:03:21;;;;;;;9.48;5.75;;;;;;;;;;4997424;28;20122;-61
2020/12/30 08:05:49;;;;;;;6.38;4.32;;;;;;;;;;4999610;28;20525;-61
2020/12/30 08:08:16;;;;;;;8.50;4.70;;;;;;;;;;4996267;28;20549;-62
2020/12/30 08:10:42;;;;;;;8.43;5.10;;;;;;;;;;4999132;28;20070;-61
2020/12/30 08:13:08;;;;;;;9.02;4.63;;;;;;;;;;4998184;28;20077;-61
2020/12/30 08:15:33;;;;;;;8.98;4.60;;;;;;;;;;4999225;28;20429;-61
2020/12/30 08:17:59;;;;;;;7.88;4.60;;;;;;;;;;4998795;28;20461;-61
2020/12/30 08:20:25;;;;;;;9.23;5.43;;;;;;;;;;4996293;28;20038;-61
2020/12/30 08:22:56;;;;;;;6.78;3.97;;;;;;;;;;5000695;28;20084;-61
2020/12/30 08:25:22;;;;;;;7.55;4.03;;;;;;;;;;4997562;28;20038;-61
2020/12/30 08:27:47;;;;;;;7.18;4.13;;;;;;;;;;5000252;28;20026;-61
2020/12/30 08:30:12;;;;;;;6.50;3.88;;;;;;;;;;4998181;28;20109;-61
2020/12/30 08:32:55;;;;;;;8.15;4.25;;;;;;;;;;4999551;28;20684;-61
2020/12/30 08:35:33;;;;;;;6.50;3.50;;;;;;;;;;4991458;28;20390;-61
2020/12/30 08:38:32;;;;;;;9.48;4.60;;;;;;;;;;4997436;28;20030;-61
2020/12/30 08:40:58;;;;;;;12.43;4.25;;;;;;;;;;4966309;28;20680;-61
2020/12/30 08:43:44;;;;;;;12.80;4.10;;;;;;;;;;4997385;28;20402;-61
2020/12/30 08:46:20;;;;;;;9.38;4.30;;;;;;;;;;4998411;28;20034;-61
2020/12/30 08:48:50;;;;;;;5.78;3.50;;;;;;;;;;4999335;28;20411;-61
2020/12/30 08:51:33;;;;;;;6.38;3.33;;;;;;;;;;4990744;28;20473;-61
2020/12/30 08:53:59;;;;;;;6.53;3.83;;;;;;;;;;4998276;28;20037;-60
2020/12/30 08:56:25;;;;;;;9.85;3.95;;;;;;;;;;4996925;28;20473;-60
2020/12/30 08:58:53;;;;;;;6.53;3.50;;;;;;;;;;4998658;28;20129;-60
2020/12/30 09:01:23;;;;;;;6.45;3.65;;;;;;;;;;4997283;28;20038;-60
2020/12/30 09:03:49;;;;;;;9.18;3.15;;;;;;;;;;4999960;28;20037;-61
2020/12/30 09:06:28;;;;;;;6.22;3.55;;;;;;;;;;4997198;28;20045;-59
2020/12/30 09:08:54;;;;;;;6.95;3.05;;;;;;;;;;4997832;28;20048;-60
2020/12/30 09:11:20;;;;;;;5.82;3.30;;;;;;;;;;4997435;28;20057;-61
2020/12/30 09:13:45;;;;;;;8.13;3.72;;;;;;;;;;4999458;28;20030;-60
2020/12/30 09:16:11;;;;;;;5.35;3.25;;;;;;;;;;4997792;28;20037;-61
2020/12/30 09:18:36;;;;;;;6.43;3.53;;;;;;;;;;4997829;28;20057;-61
2020/12/30 09:21:03;;;;;;;6.15;3.08;;;;;;;;;;4998025;28;20045;-61
2020/12/30 09:23:29;;;;;;;5.47;3.38;;;;;;;;;;4995804;28;20150;-61
2020/12/30 09:25:56;;;;;;;7.38;4.07;;;;;;;;;;4994727;28;20112;-60
2020/12/30 09:28:23;;;;;;;7.38;3.30;;;;;;;;;;4998331;28;20113;-61
2020/12/30 09:30:51;;;;;;;9.30;4.95;;;;;;;;;;4999558;28;20077;-60
2020/12/30 09:33:22;;;;;;;8.88;3.40;;;;;;;;;;4996653;28;20525;-60
2020/12/30 09:35:51;;;;;;;8.77;3.50;;;;;;;;;;4998790;28;20112;-60
2020/12/30 09:38:17;;;;;;;6.85;3.83;;;;;;;;;;4996877;28;20041;-61
2020/12/30 09:40:44;;;;;;;7.43;3.55;;;;;;;;;;4997230;28;20048;-61
2020/12/30 09:43:10;;;;;;;7.72;3.97;;;;;;;;;;4996530;28;20034;-61
2020/12/30 09:45:36;;;;;;;8.10;4.00;;;;;;;;;;4997480;28;20034;-60
2020/12/30 09:48:16;;;;;;;7.78;3.78;;;;;;;;;;4997886;28;20088;-60
2020/12/30 09:50:43;;;;;;;8.27;3.38;;;;;;;;;;4998282;28;20093;-60
2020/12/30 09:53:09;;;;;;;6.05;3.20;;;;;;;;;;4996804;28;20069;-60
2020/12/30 09:55:34;;;;;;;9.68;4.82;;;;;;;;;;4995395;28;20080;-60
2020/12/30 09:58:00;;;;;;;15.45;9.32;;;;;;;;;;4995509;28;20092;-62
2020/12/30 10:00:25;;;;;;;8.38;4.13;;;;;;;;;;4998413;28;20084;-62
2020/12/30 10:02:50;;;;;;;5.85;3.67;;;;;;;;;;4995117;28;20034;-61
2020/12/30 10:05:16;;;;;;;5.78;3.45;;;;;;;;;;4994882;28;20377;-60
2020/12/30 10:07:42;;;;;;;6.25;3.40;;;;;;;;;;4997579;28;20034;-61
2020/12/30 10:10:07;;;;;;;8.60;3.05;;;;;;;;;;4992650;28;20035;-60
2020/12/30 10:12:37;;;;;;;6.13;2.90;;;;;;;;;;4994808;28;20062;-60
2020/12/30 10:15:04;;;;;;;6.63;3.55;;;;;;;;;;4997122;28;20100;-60
2020/12/30 10:17:29;;;;;;;8.38;3.08;;;;;;;;;;4995753;28;20045;-60
2020/12/30 10:19:55;;;;;;;6.20;3.00;;;;;;;;;;4997123;28;20125;-60
2020/12/30 10:22:20;;;;;;;7.00;3.28;;;;;;;;;;4995753;28;20105;-60
2020/12/30 10:24:48;;;;;;;6.95;3.35;;;;;;;;;;4998148;28;20038;-60
2020/12/30 10:27:16;;;;;;;8.05;3.58;;;;;;;;;;4991733;28;20026;-60
2020/12/30 10:29:42;;;;;;;6.30;3.17;;;;;;;;;;4997427;28;20042;-61
2020/12/30 10:32:08;;;;;;;6.28;3.25;;;;;;;;;;4995133;28;20469;-60
2020/12/30 10:34:35;;;;;;;5.60;3.40;;;;;;;;;;4996372;28;20142;-60
2020/12/30 10:37:00;;;;;;;9.88;3.90;;;;;;;;;;4995073;28;20505;-61
2020/12/30 10:39:26;;;;;;;10.65;4.32;;;;;;;;;;4995585;28;20117;-61
2020/12/30 10:41:55;;;;;;;10.88;4.10;;;;;;;;;;4996873;28;20116;-61
2020/12/30 10:44:21;;;;;;;7.97;3.55;;;;;;;;;;4995786;28;20030;-60
2020/12/30 10:46:47;;;;;;;9.65;4.15;;;;;;;;;;4995638;28;20037;-61
2020/12/30 10:49:12;;;;;;;8.57;3.75;;;;;;;;;;4995563;28;20154;-60
2020/12/30 10:51:37;;;;;;;7.20;3.50;;;;;;;;;;4996348;28;20049;-60
2020/12/30 10:54:03;;;;;;;7.13;3.72;;;;;;;;;;4996608;28;20038;-60
2020/12/30 10:56:28;;;;;;;8.55;4.22;;;;;;;;;;4994864;28;20050;-59
2020/12/30 10:58:53;;;;;;;8.00;3.95;;;;;;;;;;4995566;28;20030;-59
2020/12/30 11:01:19;;;;;;;9.60;4.93;;;;;;;;;;4995100;28;20038;-61
2020/12/30 11:03:44;;;;;;;7.88;4.32;;;;;;;;;;4994315;28;20060;-60
2020/12/30 11:06:09;;;;;;;7.50;3.78;;;;;;;;;;4993419;28;20045;-61
2020/12/30 11:08:35;;;;;;;9.75;4.35;;;;;;;;;;4994183;28;20422;-62
2020/12/30 11:11:04;;;;;;;5.93;3.50;;;;;;;;;;4993988;28;20111;-62
2020/12/30 11:13:30;;;;;;;9.48;4.20;;;;;;;;;;4993101;28;20034;-62
2020/12/30 11:15:55;;;;;;;10.43;3.97;;;;;;;;;;4993308;28;20045;-61
2020/12/30 11:18:21;;;;;;;8.25;3.90;;;;;;;;;;4992418;28;20473;-60
2020/12/30 11:20:47;;;;;;;8.35;3.92;;;;;;;;;;4996204;28;20500;-62
2020/12/30 11:23:13;;;;;;;5.05;3.13;;;;;;;;;;4996085;28;20030;-62
2020/12/30 11:25:45;;;;;;;9.65;3.83;;;;;;;;;;5000343;28;20053;-61
2020/12/30 11:28:12;;;;;;;7.18;3.95;;;;;;;;;;4999003;28;20072;-61
2020/12/30 11:30:37;;;;;;;7.60;4.00;;;;;;;;;;4998884;28;20044;-61
2020/12/30 11:33:03;;;;;;;5.88;3.60;;;;;;;;;;4999909;28;20026;-60
2020/12/30 11:35:29;;;;;;;6.07;3.42;;;;;;;;;;4995349;28;20053;-60
2020/12/30 11:37:55;;;;;;;6.82;3.28;;;;;;;;;;5000526;28;20111;-61
2020/12/30 11:40:21;;;;;;;4.95;2.92;;;;;;;;;;4997751;28;20034;-60
2020/12/30 11:42:46;;;;;;;7.20;3.70;;;;;;;;;;4997858;28;20037;-61
2020/12/30 11:45:12;;;;;;;7.15;3.25;;;;;;;;;;4998303;28;20042;-61
2020/12/30 11:47:37;;;;;;;7.60;3.22;;;;;;;;;;4998816;28;20037;-61
2020/12/30 11:50:03;;;;;;;6.75;3.40;;;;;;;;;;4998474;28;20037;-62
2020/12/30 11:52:29;;;;;;;6.75;3.58;;;;;;;;;;4997364;28;20068;-62
2020/12/30 11:54:54;;;;;;;12.30;3.20;;;;;;;;;;4994741;28;20449;-63
2020/12/30 11:57:20;;;;;;;10.07;4.25;;;;;;;;;;4998641;28;20374;-63
2020/12/30 11:59:45;;;;;;;6.25;4.03;;;;;;;;;;4994985;28;20034;-62
2020/12/30 12:02:11;;;;;;;7.18;3.30;;;;;;;;;;4992781;28;20026;-61
2020/12/30 12:04:36;;;;;;;9.65;4.07;;;;;;;;;;4999546;28;20468;-62
2020/12/30 12:07:02;;;;;;;7.07;3.70;;;;;;;;;;4999634;28;20475;-61
2020/12/30 12:09:28;;;;;;;7.85;3.72;;;;;;;;;;4997154;28;20133;-62
2020/12/30 12:11:55;;;;;;;5.55;3.90;;;;;;;;;;5000175;28;20038;-62
2020/12/30 12:14:21;;;;;;;6.13;3.53;;;;;;;;;;5000200;28;20038;-61
2020/12/30 12:16:56;;;;;;;7.40;3.97;;;;;;;;;;4998342;28;20042;-61
2020/12/30 12:19:23;;;;;;;7.90;4.07;;;;;;;;;;4993522;28;20038;-62
2020/12/30 12:21:49;;;;;;;8.18;4.13;;;;;;;;;;5000583;28;20369;-62
2020/12/30 12:24:15;;;;;;;6.72;3.85;;;;;;;;;;4998455;28;20465;-61
2020/12/30 12:26:41;;;;;;;6.93;3.92;;;;;;;;;;4995755;28;20042;-62
2020/12/30 12:29:34;;;;;;;7.10;4.20;;;;;;;;;;4997931;28;20125;-63
2020/12/30 12:32:19;;;;;;;10.05;4.18;;;;;;;;;;5015042;28;20096;-63
2020/12/30 12:34:50;;;;;;;9.20;4.50;;;;;;;;;;4999854;28;20048;-63
2020/12/30 12:37:17;;;;;;;14.85;6.95;;;;;;;;;;4997269;28;20062;-61
2020/12/30 12:39:44;;;;;;;8.93;5.32;;;;;;;;;;4999225;28;20042;-60
2020/12/30 12:42:10;;;;;;;8.55;4.15;;;;;;;;;;4996900;28;20034;-62
2020/12/30 12:44:35;;;;;;;7.57;4.20;;;;;;;;;;4994298;28;20438;-62
2020/12/30 12:47:01;;;;;;;10.05;4.57;;;;;;;;;;4998935;28;20025;-62
2020/12/30 12:49:26;;;;;;;6.53;3.88;;;;;;;;;;4991774;28;20043;-61
2020/12/30 12:51:54;;;;;;;5.53;3.33;;;;;;;;;;4998579;28;20041;-63
2020/12/30 12:54:20;;;;;;;6.05;3.65;;;;;;;;;;4997286;28;20113;-61
2020/12/30 12:56:46;;;;;;;7.70;4.32;;;;;;;;;;4994228;28;20121;-61
2020/12/30 12:59:11;;;;;;;7.15;4.07;;;;;;;;;;4996781;28;20042;-62
2020/12/30 13:01:45;;;;;;;6.95;4.07;;;;;;;;;;4998104;28;20029;-61
2020/12/30 13:04:10;;;;;;;7.65;3.85;;;;;;;;;;4994376;28;20031;-62
2020/12/30 13:06:36;;;;;;;7.25;3.80;;;;;;;;;;4991979;28;20037;-61
2020/12/30 13:09:02;;;;;;;7.38;3.28;;;;;;;;;;4998522;28;20038;-62
2020/12/30 13:11:28;;;;;;;7.15;3.20;;;;;;;;;;4990971;28;20036;-61
2020/12/30 13:13:54;;;;;;;8.95;2.97;;;;;;;;;;5000280;28;20030;-61
2020/12/30 13:16:20;;;;;;;4.95;2.53;;;;;;;;;;4995706;28;20049;-60
2020/12/30 13:18:46;;;;;;;4.68;2.63;;;;;;;;;;4992256;28;20038;-62
2020/12/30 13:21:12;;;;;;;4.63;2.60;;;;;;;;;;4995631;28;20138;-62
2020/12/30 13:23:37;;;;;;;5.65;3.08;;;;;;;;;;4995482;28;20038;-61
2020/12/30 13:26:03;;;;;;;5.78;3.25;;;;;;;;;;4995686;28;20465;-62
2020/12/30 13:28:29;;;;;;;6.88;3.58;;;;;;;;;;4996576;28;20054;-62
2020/12/30 13:30:54;;;;;;;7.93;3.47;;;;;;;;;;4993057;28;20038;-62
2020/12/30 13:33:21;;;;;;;5.13;2.78;;;;;;;;;;5002010;28;20366;-63
2020/12/30 13:35:52;;;;;;;8.82;3.80;;;;;;;;;;4998132;28;20045;-62
2020/12/30 13:38:18;;;;;;;4.97;3.05;;;;;;;;;;4984992;28;20089;-62
2020/12/30 13:40:43;;;;;;;6.93;3.30;;;;;;;;;;4996324;28;20030;-61
2020/12/30 13:43:09;;;;;;;12.75;3.33;;;;;;;;;;4995227;28;20546;-61
2020/12/30 13:45:36;;;;;;;7.35;3.72;;;;;;;;;;4993462;28;20092;-60
2020/12/30 13:48:01;;;;;;;7.65;3.88;;;;;;;;;;4995304;28;20061;-61
2020/12/30 13:50:28;;;;;;;5.70;3.28;;;;;;;;;;4982426;28;20849;-62
2020/12/30 13:52:54;;;;;;;9.23;3.33;;;;;;;;;;4985928;28;20034;-62
2020/12/30 13:55:19;;;;;;;6.50;2.92;;;;;;;;;;4992380;28;20040;-63
2020/12/30 13:57:44;;;;;;;4.55;3.13;;;;;;;;;;4996970;28;20117;-62
2020/12/30 14:00:11;;;;;;;4.60;2.30;;;;;;;;;;4995396;28;20474;-62
2020/12/30 14:02:36;;;;;;;6.55;3.05;;;;;;;;;;4992649;28;20041;-62
2020/12/30 14:05:03;;;;;;;5.70;2.78;;;;;;;;;;4996724;28;20483;-62
2020/12/30 14:07:29;;;;;;;5.90;3.22;;;;;;;;;;4994564;28;20114;-62
2020/12/30 14:09:55;;;;;;;5.65;2.92;;;;;;;;;;4998157;28;20052;-62
2020/12/30 14:12:20;;;;;;;5.57;2.85;;;;;;;;;;4993232;28;20046;-62
2020/12/30 14:14:45;;;;;;;4.57;2.58;;;;;;;;;;4997902;28;20050;-62
2020/12/30 14:17:11;;;;;;;4.13;2.25;;;;;;;;;;4995250;28;20106;-62
2020/12/30 14:19:36;;;;;;;5.35;2.20;;;;;;;;;;4994658;28;20107;-62
2020/12/30 14:22:01;;;;;;;4.88;2.35;;;;;;;;;;4996380;28;20085;-62
2020/12/30 14:24:27;;;;;;;8.48;2.58;;;;;;;;;;4995958;28;20038;-62
2020/12/30 14:26:57;;;;;;;5.68;2.65;;;;;;;;;;4997718;28;20022;-62
2020/12/30 14:29:22;;;;;;;6.80;2.80;;;;;;;;;;4994457;28;20061;-60
2020/12/30 14:31:51;;;;;;;5.80;3.08;;;;;;;;;;4995833;28;20445;-61
2020/12/30 14:34:17;;;;;;;4.35;2.20;;;;;;;;;;4995354;28;20038;-61
2020/12/30 14:36:42;;;;;;;3.35;2.00;;;;;;;;;;4996954;28;20480;-61
2020/12/30 14:39:08;;;;;;;4.50;2.20;;;;;;;;;;4995343;28;20034;-61
2020/12/30 14:41:34;;;;;;;5.45;2.08;;;;;;;;;;4995125;28;20385;-61